sensor_id;sensor_type;location;lat;lon;timestamp;P1;durP1;ratioP1;P2;durP2;ratioP2
23594;SDS011;11975;47.674;9.472;2022-11-14T15:18:18;24.02;;;22.65;;
23594;SDS011;11975;47.674;9.472;2022-11-14T15:21:07;23.70;;;22.33;;
23594;SDS011;11975;47.674;9.472;2022-11-14T15:23:36;23.77;;;22.45;;
23594;SDS011;11975;47.674;9.472;2022-11-14T15:26:03;25.80;;;24.35;;
23594;SDS011;11975;47.674;9.472;2022-11-14T15:28:36;25.38;;;23.98;;
23594;SDS011;11975;47.674;9.472;2022-11-14T15:31:02;24.10;;;22.73;;
23594;SDS011;11975;47.674;9.472;2022-11-14T15:33:29;25.05;;;23.63;;
23594;SDS011;11975;47.674;9.472;2022-11-14T15:36:06;24.88;;;23.48;;
23594;SDS011;11975;47.674;9.472;2022-11-14T15:42:10;25.67;;;24.25;;
23594;SDS011;11975;47.674;9.472;2022-11-14T15:44:36;25.95;;;24.45;;
23594;SDS011;11975;47.674;9.472;2022-11-14T15:47:02;25.05;;;23.55;;
23594;SDS011;11975;47.674;9.472;2022-11-14T15:49:29;25.08;;;23.65;;
23594;SDS011;11975;47.674;9.472;2022-11-14T15:51:56;25.05;;;23.65;;
23594;SDS011;11975;47.674;9.472;2022-11-14T15:54:27;25.05;;;23.65;;
23594;SDS011;11975;47.674;9.472;2022-11-14T15:57:00;25.35;;;23.83;;
23594;SDS011;11975;47.674;9.472;2022-11-14T16:02:03;26.52;;;25.02;;
23594;SDS011;11975;47.674;9.472;2022-11-14T16:04:36;27.02;;;25.52;;
23594;SDS011;11975;47.674;9.472;2022-11-14T16:07:04;26.63;;;25.02;;
23594;SDS011;11975;47.674;9.472;2022-11-14T16:09:30;25.90;;;24.30;;
23594;SDS011;11975;47.674;9.472;2022-11-14T16:11:56;25.98;;;24.48;;
23594;SDS011;11975;47.674;9.472;2022-11-14T16:14:22;26.08;;;24.58;;
23594;SDS011;11975;47.674;9.472;2022-11-14T16:16:47;25.73;;;24.27;;
23594;SDS011;11975;47.674;9.472;2022-11-14T16:19:14;26.00;;;24.50;;
23594;SDS011;11975;47.674;9.472;2022-11-14T16:21:41;26.05;;;24.38;;
23594;SDS011;11975;47.674;9.472;2022-11-14T16:24:40;27.38;;;25.75;;
23594;SDS011;11975;47.674;9.472;2022-11-14T16:26:59;27.77;;;26.08;;
23594;SDS011;11975;47.674;9.472;2022-11-14T16:29:25;25.95;;;24.45;;
23594;SDS011;11975;47.674;9.472;2022-11-14T16:31:51;25.95;;;24.50;;
23594;SDS011;11975;47.674;9.472;2022-11-14T16:34:18;26.35;;;24.85;;
23594;SDS011;11975;47.674;9.472;2022-11-14T16:36:45;27.15;;;25.50;;
23594;SDS011;11975;47.674;9.472;2022-11-14T16:39:12;26.70;;;25.20;;
23594;SDS011;11975;47.674;9.472;2022-11-14T16:41:38;27.83;;;26.15;;
23594;SDS011;11975;47.674;9.472;2022-11-14T16:44:05;29.43;;;27.73;;
23594;SDS011;11975;47.674;9.472;2022-11-14T16:46:31;30.23;;;28.40;;
23594;SDS011;11975;47.674;9.472;2022-11-14T16:48:57;30.05;;;28.15;;
23594;SDS011;11975;47.674;9.472;2022-11-14T16:51:22;29.02;;;27.33;;
23594;SDS011;11975;47.674;9.472;2022-11-14T16:53:53;30.83;;;28.67;;
23594;SDS011;11975;47.674;9.472;2022-11-14T16:56:19;31.13;;;29.20;;
23594;SDS011;11975;47.674;9.472;2022-11-14T16:58:45;31.83;;;29.83;;
23594;SDS011;11975;47.674;9.472;2022-11-14T17:01:12;35.38;;;32.08;;
23594;SDS011;11975;47.674;9.472;2022-11-14T17:03:39;30.83;;;28.98;;
23594;SDS011;11975;47.674;9.472;2022-11-14T17:06:06;30.15;;;28.35;;
23594;SDS011;11975;47.674;9.472;2022-11-14T17:08:33;30.73;;;28.77;;
23594;SDS011;11975;47.674;9.472;2022-11-14T17:11:00;30.45;;;28.48;;
23594;SDS011;11975;47.674;9.472;2022-11-14T17:13:28;29.73;;;27.92;;
23594;SDS011;11975;47.674;9.472;2022-11-14T17:15:59;28.95;;;27.05;;
23594;SDS011;11975;47.674;9.472;2022-11-14T17:18:26;30.40;;;28.50;;
23594;SDS011;11975;47.674;9.472;2022-11-14T17:20:51;28.35;;;26.70;;
23594;SDS011;11975;47.674;9.472;2022-11-14T17:23:18;29.67;;;27.67;;
23594;SDS011;11975;47.674;9.472;2022-11-14T17:25:44;28.55;;;26.95;;
23594;SDS011;11975;47.674;9.472;2022-11-14T17:28:10;29.75;;;27.95;;
23594;SDS011;11975;47.674;9.472;2022-11-14T17:30:39;27.77;;;26.17;;
23594;SDS011;11975;47.674;9.472;2022-11-14T17:33:05;29.05;;;27.23;;
23594;SDS011;11975;47.674;9.472;2022-11-14T17:35:33;28.15;;;26.35;;
23594;SDS011;11975;47.674;9.472;2022-11-14T17:38:00;27.77;;;26.17;;
23594;SDS011;11975;47.674;9.472;2022-11-14T17:40:26;28.73;;;26.90;;
23594;SDS011;11975;47.674;9.472;2022-11-14T17:42:52;28.23;;;26.52;;
23594;SDS011;11975;47.674;9.472;2022-11-14T17:45:18;29.25;;;27.45;;
23594;SDS011;11975;47.674;9.472;2022-11-14T17:47:44;30.08;;;28.15;;
23594;SDS011;11975;47.674;9.472;2022-11-14T17:50:10;30.55;;;28.25;;
23594;SDS011;11975;47.674;9.472;2022-11-14T17:52:36;30.05;;;28.25;;
23594;SDS011;11975;47.674;9.472;2022-11-14T17:55:02;28.92;;;27.23;;
23594;SDS011;11975;47.674;9.472;2022-11-14T17:57:28;30.55;;;28.75;;
23594;SDS011;11975;47.674;9.472;2022-11-14T17:59:54;29.42;;;27.63;;
23594;SDS011;11975;47.674;9.472;2022-11-14T18:02:20;29.42;;;27.60;;
23594;SDS011;11975;47.674;9.472;2022-11-14T18:04:46;29.38;;;27.50;;
23594;SDS011;11975;47.674;9.472;2022-11-14T18:07:13;30.40;;;28.40;;
23594;SDS011;11975;47.674;9.472;2022-11-14T18:09:40;30.85;;;29.05;;
23594;SDS011;11975;47.674;9.472;2022-11-14T18:12:06;30.48;;;28.67;;
23594;SDS011;11975;47.674;9.472;2022-11-14T18:14:32;30.02;;;27.88;;
23594;SDS011;11975;47.674;9.472;2022-11-14T18:16:58;29.52;;;27.83;;
23594;SDS011;11975;47.674;9.472;2022-11-14T18:19:24;31.40;;;29.52;;
23594;SDS011;11975;47.674;9.472;2022-11-14T18:21:50;30.35;;;28.30;;
23594;SDS011;11975;47.674;9.472;2022-11-14T18:24:16;28.63;;;27.02;;
23594;SDS011;11975;47.674;9.472;2022-11-14T18:26:41;31.23;;;29.42;;
23594;SDS011;11975;47.674;9.472;2022-11-14T18:29:07;31.25;;;29.42;;
23594;SDS011;11975;47.674;9.472;2022-11-14T18:31:33;31.05;;;29.25;;
23594;SDS011;11975;47.674;9.472;2022-11-14T18:34:00;29.53;;;27.77;;
23594;SDS011;11975;47.674;9.472;2022-11-14T18:36:27;31.05;;;29.25;;
23594;SDS011;11975;47.674;9.472;2022-11-14T18:38:54;30.65;;;28.85;;
23594;SDS011;11975;47.674;9.472;2022-11-14T18:41:20;29.27;;;27.58;;
23594;SDS011;11975;47.674;9.472;2022-11-14T18:43:47;29.60;;;27.90;;
23594;SDS011;11975;47.674;9.472;2022-11-14T18:46:14;30.90;;;29.07;;
23594;SDS011;11975;47.674;9.472;2022-11-14T18:48:41;30.70;;;28.92;;
23594;SDS011;11975;47.674;9.472;2022-11-14T18:51:12;30.83;;;28.95;;
23594;SDS011;11975;47.674;9.472;2022-11-14T18:53:38;30.30;;;28.50;;
23594;SDS011;11975;47.674;9.472;2022-11-14T18:56:05;31.23;;;29.33;;
23594;SDS011;11975;47.674;9.472;2022-11-14T18:58:32;31.13;;;29.23;;
23594;SDS011;11975;47.674;9.472;2022-11-14T19:01:06;29.60;;;27.90;;
23594;SDS011;11975;47.674;9.472;2022-11-14T19:03:32;29.00;;;27.30;;
23594;SDS011;11975;47.674;9.472;2022-11-14T19:06:02;30.92;;;29.02;;
23594;SDS011;11975;47.674;9.472;2022-11-14T19:08:28;30.38;;;28.67;;
23594;SDS011;11975;47.674;9.472;2022-11-14T19:11:01;30.02;;;28.17;;
23594;SDS011;11975;47.674;9.472;2022-11-14T19:13:31;30.33;;;28.63;;
23594;SDS011;11975;47.674;9.472;2022-11-14T19:16:00;30.33;;;28.63;;
23594;SDS011;11975;47.674;9.472;2022-11-14T19:18:28;30.95;;;29.15;;
23594;SDS011;11975;47.674;9.472;2022-11-14T19:20:55;31.77;;;29.85;;
23594;SDS011;11975;47.674;9.472;2022-11-14T19:25:47;31.05;;;29.13;;
23594;SDS011;11975;47.674;9.472;2022-11-14T19:28:13;31.80;;;29.70;;
23594;SDS011;11975;47.674;9.472;2022-11-14T19:30:39;30.88;;;28.98;;
23594;SDS011;11975;47.674;9.472;2022-11-14T19:33:05;29.85;;;28.15;;
23594;SDS011;11975;47.674;9.472;2022-11-14T19:35:31;31.20;;;29.33;;
23594;SDS011;11975;47.674;9.472;2022-11-14T19:37:57;29.98;;;28.27;;
23594;SDS011;11975;47.674;9.472;2022-11-14T19:40:23;31.25;;;29.35;;
23594;SDS011;11975;47.674;9.472;2022-11-14T19:42:53;30.58;;;28.77;;
23594;SDS011;11975;47.674;9.472;2022-11-14T19:45:20;30.30;;;28.60;;
23594;SDS011;11975;47.674;9.472;2022-11-14T19:47:46;30.10;;;28.40;;
23594;SDS011;11975;47.674;9.472;2022-11-14T19:50:13;31.20;;;29.30;;
23594;SDS011;11975;47.674;9.472;2022-11-14T19:52:40;31.90;;;29.98;;
23594;SDS011;11975;47.674;9.472;2022-11-14T19:55:06;31.48;;;29.60;;
23594;SDS011;11975;47.674;9.472;2022-11-14T19:57:32;29.92;;;28.23;;
23594;SDS011;11975;47.674;9.472;2022-11-14T19:59:58;30.70;;;28.83;;
23594;SDS011;11975;47.674;9.472;2022-11-14T20:02:23;31.15;;;29.35;;
23594;SDS011;11975;47.674;9.472;2022-11-14T20:04:50;29.33;;;27.63;;
23594;SDS011;11975;47.674;9.472;2022-11-14T20:07:16;30.73;;;28.88;;
23594;SDS011;11975;47.674;9.472;2022-11-14T20:09:42;29.75;;;28.05;;
23594;SDS011;11975;47.674;9.472;2022-11-14T20:12:08;29.92;;;28.02;;
23594;SDS011;11975;47.674;9.472;2022-11-14T20:14:34;29.40;;;27.70;;
23594;SDS011;11975;47.674;9.472;2022-11-14T20:17:00;29.85;;;28.15;;
23594;SDS011;11975;47.674;9.472;2022-11-14T20:19:25;29.55;;;27.85;;
23594;SDS011;11975;47.674;9.472;2022-11-14T20:21:52;28.90;;;27.30;;
23594;SDS011;11975;47.674;9.472;2022-11-14T20:24:18;30.52;;;28.73;;
23594;SDS011;11975;47.674;9.472;2022-11-14T20:26:47;29.50;;;27.80;;
23594;SDS011;11975;47.674;9.472;2022-11-14T20:29:13;29.63;;;27.92;;
23594;SDS011;11975;47.674;9.472;2022-11-14T20:31:39;29.80;;;28.10;;
23594;SDS011;11975;47.674;9.472;2022-11-14T20:34:05;31.20;;;29.17;;
23594;SDS011;11975;47.674;9.472;2022-11-14T20:36:30;30.70;;;28.90;;
23594;SDS011;11975;47.674;9.472;2022-11-14T20:38:57;30.45;;;28.63;;
23594;SDS011;11975;47.674;9.472;2022-11-14T20:41:23;30.67;;;28.88;;
23594;SDS011;11975;47.674;9.472;2022-11-14T20:43:49;30.63;;;28.83;;
23594;SDS011;11975;47.674;9.472;2022-11-14T20:46:16;30.13;;;28.40;;
23594;SDS011;11975;47.674;9.472;2022-11-14T20:48:43;30.23;;;28.25;;
23594;SDS011;11975;47.674;9.472;2022-11-14T20:51:12;30.15;;;28.42;;
23594;SDS011;11975;47.674;9.472;2022-11-14T20:53:44;29.80;;;28.10;;
23594;SDS011;11975;47.674;9.472;2022-11-14T20:56:11;30.58;;;28.77;;
23594;SDS011;11975;47.674;9.472;2022-11-14T20:58:40;29.15;;;27.48;;
23594;SDS011;11975;47.674;9.472;2022-11-14T21:01:07;29.00;;;27.33;;
23594;SDS011;11975;47.674;9.472;2022-11-14T21:03:33;28.80;;;27.20;;
23594;SDS011;11975;47.674;9.472;2022-11-14T21:05:59;28.87;;;27.23;;
23594;SDS011;11975;47.674;9.472;2022-11-14T21:08:26;28.63;;;26.92;;
23594;SDS011;11975;47.674;9.472;2022-11-14T21:10:59;29.35;;;27.65;;
23594;SDS011;11975;47.674;9.472;2022-11-14T21:13:26;28.38;;;26.77;;
23594;SDS011;11975;47.674;9.472;2022-11-14T21:16:12;29.98;;;28.17;;
23594;SDS011;11975;47.674;9.472;2022-11-14T21:18:39;31.20;;;29.40;;
23594;SDS011;11975;47.674;9.472;2022-11-14T21:21:07;30.33;;;28.53;;
23594;SDS011;11975;47.674;9.472;2022-11-14T21:23:34;29.38;;;27.67;;
23594;SDS011;11975;47.674;9.472;2022-11-14T21:28:28;27.95;;;26.35;;
23594;SDS011;11975;47.674;9.472;2022-11-14T21:30:55;29.25;;;27.55;;
23594;SDS011;11975;47.674;9.472;2022-11-14T21:33:24;30.33;;;28.45;;
23594;SDS011;11975;47.674;9.472;2022-11-14T21:35:51;29.67;;;27.98;;
23594;SDS011;11975;47.674;9.472;2022-11-14T21:38:16;31.15;;;29.35;;
23594;SDS011;11975;47.674;9.472;2022-11-14T21:40:42;31.67;;;29.88;;
23594;SDS011;11975;47.674;9.472;2022-11-14T21:43:15;31.35;;;29.55;;
23594;SDS011;11975;47.674;9.472;2022-11-14T21:45:41;33.55;;;31.55;;
23594;SDS011;11975;47.674;9.472;2022-11-14T21:48:07;32.47;;;30.58;;
23594;SDS011;11975;47.674;9.472;2022-11-14T21:50:33;33.00;;;31.10;;
23594;SDS011;11975;47.674;9.472;2022-11-14T21:52:59;32.35;;;30.45;;
23594;SDS011;11975;47.674;9.472;2022-11-14T21:55:25;32.15;;;30.35;;
23594;SDS011;11975;47.674;9.472;2022-11-14T21:57:54;33.05;;;31.15;;
23594;SDS011;11975;47.674;9.472;2022-11-14T22:00:20;32.70;;;30.75;;
23594;SDS011;11975;47.674;9.472;2022-11-14T22:02:46;32.13;;;30.33;;
23594;SDS011;11975;47.674;9.472;2022-11-14T22:05:30;34.17;;;32.17;;
23594;SDS011;11975;47.674;9.472;2022-11-14T22:07:56;31.30;;;29.40;;
23594;SDS011;11975;47.674;9.472;2022-11-14T22:10:22;29.80;;;28.08;;
23594;SDS011;11975;47.674;9.472;2022-11-14T22:12:48;30.27;;;28.52;;
23594;SDS011;11975;47.674;9.472;2022-11-14T22:15:14;29.35;;;27.65;;
23594;SDS011;11975;47.674;9.472;2022-11-14T22:17:40;32.90;;;31.00;;
23594;SDS011;11975;47.674;9.472;2022-11-14T22:22:33;28.17;;;26.58;;
23594;SDS011;11975;47.674;9.472;2022-11-14T22:24:59;28.67;;;27.08;;
23594;SDS011;11975;47.674;9.472;2022-11-14T22:27:25;28.02;;;26.42;;
23594;SDS011;11975;47.674;9.472;2022-11-14T22:29:51;29.02;;;27.38;;
23594;SDS011;11975;47.674;9.472;2022-11-14T22:32:17;32.15;;;30.25;;
23594;SDS011;11975;47.674;9.472;2022-11-14T22:34:43;31.25;;;29.45;;
23594;SDS011;11975;47.674;9.472;2022-11-14T22:37:09;31.30;;;29.50;;
23594;SDS011;11975;47.674;9.472;2022-11-14T22:39:35;31.98;;;30.17;;
23594;SDS011;11975;47.674;9.472;2022-11-14T22:42:01;29.38;;;27.40;;
23594;SDS011;11975;47.674;9.472;2022-11-14T22:44:27;28.40;;;26.80;;
23594;SDS011;11975;47.674;9.472;2022-11-14T22:46:52;28.17;;;26.58;;
23594;SDS011;11975;47.674;9.472;2022-11-14T22:49:18;29.42;;;27.48;;
23594;SDS011;11975;47.674;9.472;2022-11-14T22:51:44;28.77;;;27.15;;
23594;SDS011;11975;47.674;9.472;2022-11-14T22:54:10;28.90;;;27.30;;
23594;SDS011;11975;47.674;9.472;2022-11-14T22:56:37;34.28;;;32.30;;
23594;SDS011;11975;47.674;9.472;2022-11-14T22:59:03;30.08;;;28.27;;
23594;SDS011;11975;47.674;9.472;2022-11-14T23:01:30;28.92;;;27.33;;
23594;SDS011;11975;47.674;9.472;2022-11-14T23:03:57;28.92;;;27.33;;
23594;SDS011;11975;47.674;9.472;2022-11-14T23:06:28;28.67;;;27.08;;
23594;SDS011;11975;47.674;9.472;2022-11-14T23:11:25;27.67;;;26.13;;
23594;SDS011;11975;47.674;9.472;2022-11-14T23:13:53;28.23;;;26.63;;
23594;SDS011;11975;47.674;9.472;2022-11-14T23:18:50;32.45;;;30.58;;
23594;SDS011;11975;47.674;9.472;2022-11-14T23:21:19;33.42;;;31.55;;
23594;SDS011;11975;47.674;9.472;2022-11-14T23:23:56;33.05;;;31.17;;
23594;SDS011;11975;47.674;9.472;2022-11-14T23:26:28;32.78;;;30.92;;
23594;SDS011;11975;47.674;9.472;2022-11-14T23:28:54;32.40;;;30.58;;
23594;SDS011;11975;47.674;9.472;2022-11-14T23:31:21;32.17;;;30.35;;
23594;SDS011;11975;47.674;9.472;2022-11-14T23:33:48;33.38;;;31.48;;
23594;SDS011;11975;47.674;9.472;2022-11-14T23:36:15;33.22;;;31.35;;
23594;SDS011;11975;47.674;9.472;2022-11-14T23:38:42;32.40;;;30.38;;
23594;SDS011;11975;47.674;9.472;2022-11-14T23:41:08;32.47;;;30.63;;
23594;SDS011;11975;47.674;9.472;2022-11-14T23:43:40;27.60;;;26.05;;
23594;SDS011;11975;47.674;9.472;2022-11-14T23:46:06;33.03;;;30.60;;
23594;SDS011;11975;47.674;9.472;2022-11-14T23:48:32;29.88;;;28.17;;
23594;SDS011;11975;47.674;9.472;2022-11-14T23:50:58;29.00;;;27.38;;
23594;SDS011;11975;47.674;9.472;2022-11-14T23:53:24;27.23;;;25.70;;
23594;SDS011;11975;47.674;9.472;2022-11-14T23:55:57;26.55;;;25.05;;
23594;SDS011;11975;47.674;9.472;2022-11-14T23:58:24;26.17;;;24.73;;
